Broadmeadows, Australia
Current Conditions -  °F | °C
As of 12:00 PM on Sunday 26 Oct 2014 (Local Time) from YMEN Reporting Station
Clear Clear  
Wind Chill: 63°   Ceiling: Unl
Heat Index: 63°   Visibility: 6mi
Dew Point: 50°   Wind: 6mph
Humidity: 63%   Direction: 140°SE
Pressure: 29.94"   Gusts: NA
Location:  37.68°S, 144.92°E
Report Text: YMEN 260100Z AUTO 14005KT 070V190 9999 // NCD 17/10 Q1014
Loading
Personal Weather Stations






























Interactive Weather Map New forecast layout! Learn more

10-Day Weather Forecast

Advertisements
Track Severe Weather on mobile